Time;durP1;ratioP1;P1;durP2;ratioP2;P2;SDS_P1;SDS_P2;PMS_P1;PMS_P2;Temp;Humidity;BMP_temperature;BMP_pressure;BME280_temperature;BME280_humidity;BME280_pressure;Samples;Min_cycle;Max_cycle;Signal;HPM_P1;HPM_P2
2024/04/06 00:01:18;;;;;;;3.50;2.03;;;;;;;11.98;100.00;101078.00;5030665;28;20399;-70
2024/04/06 00:03:43;;;;;;;2.63;1.63;;;;;;;11.64;100.00;101042.84;5029351;28;20424;-69
2024/04/06 00:06:09;;;;;;;4.40;2.00;;;;;;;11.73;100.00;100906.00;5029979;28;20060;-70
2024/04/06 00:08:34;;;;;;;3.35;1.77;;;;;;;12.61;100.00;101026.75;5028081;28;20029;-69
2024/04/06 00:10:59;;;;;;;3.30;1.70;;;;;;;12.87;100.00;101022.81;5032576;28;20407;-70
2024/04/06 00:13:25;;;;;;;5.03;1.80;;;;;;;12.53;100.00;101033.69;5021372;28;20037;-69
2024/04/06 00:15:50;;;;;;;4.70;1.90;;;;;;;12.04;100.00;101052.41;5029484;28;20482;-69
2024/04/06 00:18:16;;;;;;;5.00;2.17;;;;;;;12.32;100.00;101026.44;5029378;28;20037;-71
2024/04/06 00:20:41;;;;;;;5.68;1.92;;;;;;;12.09;100.00;101052.34;5029772;28;20021;-70
2024/04/06 00:23:07;;;;;;;2.95;2.00;;;;;;;11.54;100.00;100903.78;5029896;28;20397;-69
2024/04/06 00:25:32;;;;;;;3.50;1.60;;;;;;;12.06;100.00;100994.59;5028675;28;20018;-69
2024/04/06 00:27:57;;;;;;;3.25;1.98;;;;;;;11.35;100.00;100809.03;5029678;28;20028;-70
2024/04/06 00:30:23;;;;;;;4.75;1.80;;;;;;;11.84;100.00;100862.53;5010990;28;20120;-71
2024/04/06 00:32:48;;;;;;;8.95;1.90;;;;;;;12.06;100.00;100956.38;5029048;28;20037;-70
2024/04/06 00:35:15;;;;;;;3.80;2.00;;;;;;;11.57;100.00;100930.03;5028688;28;20037;-70
2024/04/06 00:37:41;;;;;;;5.35;2.10;;;;;;;12.37;100.00;100937.94;5029561;28;20029;-74
2024/04/06 00:40:07;;;;;;;3.63;1.70;;;;;;;12.59;100.00;100974.91;5029179;28;20029;-71
2024/04/06 00:42:32;;;;;;;3.17;1.80;;;;;;;11.97;100.00;101004.13;5029190;28;20026;-69
2024/04/06 00:44:57;;;;;;;4.22;2.38;;;;;;;12.18;100.00;101006.31;5029171;28;20466;-69
2024/04/06 00:47:23;;;;;;;5.15;3.03;;;;;;;12.02;100.00;100992.97;5029642;28;20034;-70
2024/04/06 00:49:48;;;;;;;7.65;3.30;;;;;;;12.05;100.00;100997.19;5028339;28;20037;-70
2024/04/06 00:52:14;;;;;;;7.00;3.00;;;;;;;11.32;100.00;100926.22;5028293;28;20036;-70
2024/04/06 00:54:39;;;;;;;6.18;2.80;;;;;;;11.45;100.00;100886.13;5029138;28;20029;-69
2024/04/06 00:57:08;;;;;;;3.80;2.80;;;;;;;11.32;100.00;100882.94;5028507;28;20053;-70
2024/04/06 00:59:34;;;;;;;5.35;2.75;;;;;;;12.09;100.00;100976.72;5028966;28;20029;-69
2024/04/06 01:02:01;;;;;;;4.93;3.10;;;;;;;11.64;100.00;101000.41;5027722;28;20064;-71
2024/04/06 01:04:28;;;;;;;4.93;2.95;;;;;;;11.65;100.00;100891.69;5026608;28;20026;-70
2024/04/06 01:06:54;;;;;;;5.43;3.05;;;;;;;12.10;100.00;100957.16;5028548;28;20037;-70
2024/04/06 01:09:20;;;;;;;6.10;3.28;;;;;;;11.95;100.00;100976.13;5028030;28;20112;-69
2024/04/06 01:11:45;;;;;;;6.40;3.53;;;;;;;11.34;100.00;100904.13;5011057;28;20098;-71
2024/04/06 01:14:11;;;;;;;5.57;3.50;;;;;;;11.60;100.00;101006.41;5029047;28;20041;-70
2024/04/06 01:16:38;;;;;;;4.43;3.00;;;;;;;11.76;100.00;100996.84;5028167;28;20021;-70
2024/04/06 01:19:03;;;;;;;6.88;2.28;;;;;;;10.15;100.00;100867.66;5028706;28;20488;-75
2024/04/06 01:21:29;;;;;;;5.30;2.20;;;;;;;11.30;100.00;101027.22;5028771;28;20079;-70
2024/04/06 01:23:54;;;;;;;4.10;1.98;;;;;;;10.67;100.00;100982.25;5027903;28;20117;-70
2024/04/06 01:26:22;;;;;;;2.72;1.80;;;;;;;11.19;100.00;100968.00;5028638;28;20120;-70
2024/04/06 01:28:49;;;;;;;5.10;2.03;;;;;;;11.16;100.00;101001.13;5027911;28;20079;-70
2024/04/06 01:31:15;;;;;;;3.83;2.40;;;;;;;11.25;100.00;100983.19;5027732;28;20071;-70
2024/04/06 01:33:41;;;;;;;3.92;1.98;;;;;;;10.98;100.00;100882.63;5028440;28;20112;-70
2024/04/06 01:36:07;;;;;;;2.58;1.80;;;;;;;10.72;100.00;100841.47;5028501;28;20040;-70
2024/04/06 01:38:33;;;;;;;6.95;1.70;;;;;;;11.41;100.00;100926.06;5028226;28;20037;-75
2024/04/06 01:40:59;;;;;;;4.90;1.90;;;;;;;10.59;100.00;100814.56;5027183;28;20029;-70
2024/04/06 01:43:25;;;;;;;3.65;1.48;;;;;;;10.99;100.00;100802.88;5027551;28;20412;-70
2024/04/06 01:45:50;;;;;;;2.13;1.60;;;;;;;10.69;100.00;100731.31;5028402;28;20079;-70
2024/04/06 01:48:16;;;;;;;6.72;2.60;;;;;;;11.50;100.00;100920.81;5027843;28;20029;-76
2024/04/06 01:50:41;;;;;;;5.45;3.90;;;;;;;11.36;100.00;100879.47;5028705;28;20029;-70
2024/04/06 01:53:07;;;;;;;6.22;3.20;;;;;;;11.36;100.00;100866.75;5008974;28;20039;-71
2024/04/06 01:55:32;;;;;;;5.45;3.10;;;;;;;11.62;100.00;100823.00;5026598;28;20524;-71
2024/04/06 01:57:57;;;;;;;3.88;2.28;;;;;;;11.32;100.00;100931.31;5025421;28;20107;-70
2024/04/06 02:00:23;;;;;;;3.15;2.20;;;;;;;11.20;100.00;100926.41;5027843;28;20052;-72
2024/04/06 02:02:48;;;;;;;2.80;2.50;;;;;;;11.63;100.00;100886.63;5028554;28;20912;-71
2024/04/06 02:05:14;;;;;;;3.17;2.30;;;;;;;10.30;100.00;100837.81;5010209;28;20164;-68
2024/04/06 02:07:40;;;;;;;2.55;1.50;;;;;;;10.23;100.00;100790.47;5027895;28;20488;-69
2024/04/06 02:10:05;;;;;;;4.47;1.45;;;;;;;10.03;100.00;100898.25;5027479;28;20113;-69
2024/04/06 02:12:36;;;;;;;2.55;1.98;;;;;;;10.23;100.00;100909.91;5028226;28;20033;-69
2024/04/06 02:15:02;;;;;;;3.13;1.63;;;;;;;10.69;100.00;100851.69;5026146;28;20046;-69
2024/04/06 02:17:28;;;;;;;6.57;1.60;;;;;;;10.30;100.00;100773.47;5027352;28;20443;-69
2024/04/06 02:19:53;;;;;;;2.58;1.50;;;;;;;10.67;100.00;100824.59;5028153;28;20029;-70
2024/04/06 02:22:19;;;;;;;2.88;1.50;;;;;;;9.95;100.00;100786.56;5010252;28;20384;-72
2024/04/06 02:24:45;;;;;;;2.85;1.30;;;;;;;9.12;100.00;100637.00;5027071;28;20034;-70
2024/04/06 02:27:10;;;;;;;3.65;1.45;;;;;;;9.91;100.00;100674.88;5027718;28;20076;-69
2024/04/06 02:29:35;;;;;;;3.97;1.60;;;;;;;10.25;100.00;100663.41;5009795;28;20041;-69
2024/04/06 02:32:03;;;;;;;2.95;1.70;;;;;;;11.08;100.00;100725.56;5026712;28;20663;-70
2024/04/06 02:34:28;;;;;;;2.63;1.75;;;;;;;10.77;100.00;100726.97;5009812;28;20025;-69
2024/04/06 02:36:53;;;;;;;4.18;2.00;;;;;;;10.05;100.00;100770.38;5009048;28;20044;-70
2024/04/06 02:39:19;;;;;;;3.03;2.30;;;;;;;9.91;100.00;100703.66;5027475;28;20103;-69
2024/04/06 02:41:44;;;;;;;3.20;1.98;;;;;;;10.35;100.00;100700.50;5027740;28;20530;-69
2024/04/06 02:44:09;;;;;;;4.03;2.72;;;;;;;10.16;100.00;100691.50;5027025;28;20038;-70
2024/04/06 02:46:35;;;;;;;5.28;2.50;;;;;;;9.87;100.00;100610.59;5027031;28;20096;-72
2024/04/06 02:49:00;;;;;;;3.67;2.30;;;;;;;9.30;100.00;100542.91;5035022;28;20037;-70
2024/04/06 02:51:26;;;;;;;4.03;2.20;;;;;;;10.43;100.00;100580.06;5030080;28;20025;-69
2024/04/06 02:53:51;;;;;;;2.88;2.03;;;;;;;10.76;100.00;100643.88;5027399;28;20400;-70
2024/04/06 02:56:17;;;;;;;4.97;2.33;;;;;;;10.25;100.00;100699.81;5009303;28;20091;-69
2024/04/06 02:58:42;;;;;;;4.32;2.30;;;;;;;10.03;100.00;100601.91;5012788;28;20049;-70
2024/04/06 03:01:08;;;;;;;4.15;2.25;;;;;;;10.69;100.00;100668.59;5030981;28;20467;-70
2024/04/06 03:03:33;;;;;;;2.97;2.05;;;;;;;10.00;100.00;100618.88;5030998;28;20021;-69
2024/04/06 03:06:00;;;;;;;4.70;2.03;;;;;;;10.01;100.00;100585.00;5030719;28;20042;-69
2024/04/06 03:08:25;;;;;;;3.10;2.35;;;;;;;10.11;100.00;100541.69;5031066;28;20037;-69
2024/04/06 03:10:51;;;;;;;4.13;1.92;;;;;;;10.88;100.00;100634.34;5029396;28;20033;-70
2024/04/06 03:13:16;;;;;;;3.28;2.00;;;;;;;11.16;100.00;100638.03;5030367;28;20075;-73
2024/04/06 03:15:41;;;;;;;3.05;2.15;;;;;;;10.34;100.00;100592.94;5013352;28;20126;-69
2024/04/06 03:18:07;;;;;;;4.05;2.00;;;;;;;11.14;100.00;100649.94;5031002;28;20036;-69
2024/04/06 03:20:32;;;;;;;3.10;1.75;;;;;;;10.73;100.00;100610.88;5030243;28;20404;-70
2024/04/06 03:23:02;;;;;;;3.53;2.05;;;;;;;11.17;100.00;100664.31;5030762;28;20079;-71
2024/04/06 03:25:29;;;;;;;6.53;2.03;;;;;;;11.32;100.00;100687.78;5030640;28;20503;-71
2024/04/06 03:27:55;;;;;;;3.75;2.30;;;;;;;11.14;100.00;100692.34;5030118;28;20056;-69
2024/04/06 03:30:20;;;;;;;3.67;2.28;;;;;;;11.21;100.00;100663.41;5030032;28;20034;-69
2024/04/06 03:32:46;;;;;;;9.50;2.10;;;;;;;10.54;100.00;100612.09;5013116;28;20049;-69
2024/04/06 03:35:11;;;;;;;2.53;1.90;;;;;;;10.75;100.00;100576.94;5030556;28;20424;-69
2024/04/06 03:37:45;;;;;;;3.35;2.10;;;;;;;10.89;100.00;100559.72;5030448;28;20067;-69
2024/04/06 03:40:11;;;;;;;3.78;2.20;;;;;;;11.48;100.00;100687.44;5029160;28;20473;-75
2024/04/06 03:42:36;;;;;;;4.07;2.35;;;;;;;11.51;100.00;100677.22;5030229;28;20025;-70
2024/04/06 03:45:03;;;;;;;4.22;2.42;;;;;;;11.02;100.00;100631.53;5029646;28;20038;-70
2024/04/06 03:47:29;;;;;;;4.65;2.58;;;;;;;11.33;100.00;100734.41;5012511;28;20033;-69
2024/04/06 03:49:54;;;;;;;10.93;3.00;;;;;;;10.12;100.00;100627.16;5029572;28;20026;-74
2024/04/06 03:52:20;;;;;;;5.10;2.85;;;;;;;10.50;100.00;100661.31;5030619;28;20037;-69
2024/04/06 03:54:45;;;;;;;3.70;2.85;;;;;;;10.89;100.00;100763.22;5012253;28;20506;-70
2024/04/06 03:57:11;;;;;;;5.35;3.13;;;;;;;9.73;100.00;100706.44;5010102;28;20141;-72
2024/04/06 03:59:36;;;;;;;5.38;3.03;;;;;;;9.77;100.00;100803.72;5029781;28;20491;-69
2024/04/06 04:02:01;;;;;;;7.93;3.17;;;;;;;9.93;100.00;100756.97;5030353;28;20022;-69
2024/04/06 04:04:27;;;;;;;4.07;2.50;;;;;;;9.46;100.00;100705.09;5029491;28;20037;-69
2024/04/06 04:06:52;;;;;;;5.82;3.03;;;;;;;9.39;100.00;100673.03;5030686;28;20441;-69
2024/04/06 04:09:18;;;;;;;4.85;2.70;;;;;;;10.37;100.00;100739.47;5010541;28;20032;-69
2024/04/06 04:11:43;;;;;;;4.22;3.08;;;;;;;9.52;100.00;100645.81;5030565;28;20021;-69
2024/04/06 04:14:09;;;;;;;4.47;2.85;;;;;;;10.16;100.00;100628.00;5011355;28;20033;-68
2024/04/06 04:16:35;;;;;;;6.00;3.28;;;;;;;9.40;100.00;100615.50;5029262;28;20070;-72
2024/04/06 04:19:01;;;;;;;6.70;2.90;;;;;;;10.78;100.00;100660.81;5029531;28;20415;-69
2024/04/06 04:21:27;;;;;;;6.63;3.28;;;;;;;10.29;100.00;100587.09;5029541;28;20060;-73
2024/04/06 04:23:54;;;;;;;8.55;3.03;;;;;;;10.55;100.00;100700.19;5029666;28;20100;-68
2024/04/06 04:26:19;;;;;;;7.47;3.25;;;;;;;10.69;100.00;100714.38;5011627;28;20468;-69
2024/04/06 04:28:45;;;;;;;17.20;11.32;;;;;;;10.85;100.00;100732.75;5011396;28;20136;-68
2024/04/06 04:31:16;;;;;;;19.88;12.93;;;;;;;10.51;100.00;100647.72;5029210;28;20092;-68
2024/04/06 04:33:42;;;;;;;13.70;5.78;;;;;;;10.18;100.00;100723.63;5027190;28;20025;-68
2024/04/06 04:36:08;;;;;;;7.03;4.10;;;;;;;10.56;100.00;100743.38;5028677;28;20044;-68
2024/04/06 04:38:34;;;;;;;5.72;3.95;;;;;;;10.51;100.00;100655.34;5028380;28;20504;-69
2024/04/06 04:40:59;;;;;;;8.68;4.30;;;;;;;11.03;100.00;100723.09;5029128;28;20109;-68
2024/04/06 04:43:25;;;;;;;9.60;6.25;;;;;;;10.23;100.00;100601.59;5029578;28;20030;-68
2024/04/06 04:45:50;;;;;;;10.48;5.25;;;;;;;10.63;100.00;100634.81;5028920;28;20021;-69
2024/04/06 04:48:16;;;;;;;10.20;5.22;;;;;;;10.66;100.00;100612.69;5029424;28;20072;-69
2024/04/06 04:50:41;;;;;;;9.45;4.28;;;;;;;11.10;100.00;100728.91;5011383;28;20030;-69
2024/04/06 04:53:07;;;;;;;10.32;4.90;;;;;;;11.18;100.00;100747.44;5011723;28;20471;-69
2024/04/06 04:55:32;;;;;;;5.40;3.72;;;;;;;11.40;100.00;100740.22;5010649;28;20041;-70
2024/04/06 04:57:58;;;;;;;7.78;3.50;;;;;;;10.87;100.00;100753.91;5011160;28;20132;-69
2024/04/06 05:00:24;;;;;;;10.80;7.60;;;;;;;11.14;100.00;100733.06;5028534;28;20021;-69
2024/04/06 05:02:51;;;;;;;4.70;3.58;;;;;;;10.79;100.00;100788.81;5028861;28;20424;-72
2024/04/06 05:05:16;;;;;;;5.65;3.30;;;;;;;10.21;100.00;100583.84;5028087;28;20044;-69
2024/04/06 05:07:41;;;;;;;5.75;3.35;;;;;;;10.87;100.00;100809.88;5028197;28;20409;-70
2024/04/06 05:10:10;;;;;;;7.03;4.10;;;;;;;10.55;100.00;100823.06;5028211;28;20083;-69
2024/04/06 05:12:36;;;;;;;6.95;3.67;;;;;;;10.37;100.00;100646.25;5009832;28;20038;-69
2024/04/06 05:15:02;;;;;;;6.60;3.60;;;;;;;11.42;100.00;100723.22;5028457;28;20108;-70
2024/04/06 05:17:28;;;;;;;6.20;4.20;;;;;;;11.49;100.00;100730.69;5010155;28;20415;-69
2024/04/06 05:19:53;;;;;;;13.25;6.72;;;;;;;10.94;100.00;100648.63;5028100;28;20107;-70
2024/04/06 05:22:18;;;;;;;11.57;6.80;;;;;;;11.32;100.00;100595.28;5028253;28;20033;-69
2024/04/06 05:24:44;;;;;;;19.70;9.40;;;;;;;11.13;100.00;100630.44;5032618;28;20466;-69
2024/04/06 05:27:09;;;;;;;10.05;6.03;;;;;;;11.49;100.00;100617.84;5026569;28;20471;-69
2024/04/06 05:29:35;;;;;;;12.23;7.78;;;;;;;11.47;100.00;100645.06;5009986;28;20040;-69
2024/04/06 05:32:00;;;;;;;15.65;8.13;;;;;;;11.67;100.00;100640.38;5028587;28;20480;-69
2024/04/06 05:34:27;;;;;;;17.45;9.10;;;;;;;12.08;100.00;100712.47;5027865;28;20048;-69
2024/04/06 05:36:53;;;;;;;18.05;8.73;;;;;;;12.34;100.00;100561.47;5008591;28;20570;-69
2024/04/06 05:39:18;;;;;;;13.60;8.15;;;;;;;12.49;100.00;100580.63;5008635;28;20514;-69
2024/04/06 05:41:44;;;;;;;10.50;6.60;;;;;;;12.72;100.00;100665.88;5027601;28;20033;-68
2024/04/06 05:44:09;;;;;;;8.07;4.95;;;;;;;13.07;100.00;100641.19;5027113;28;20034;-68
2024/04/06 05:46:35;;;;;;;14.05;9.93;;;;;;;12.41;100.00;100603.78;5028047;28;20545;-69
2024/04/06 05:49:02;;;;;;;10.00;5.63;;;;;;;13.24;100.00;100660.25;5027692;28;20029;-68
2024/04/06 05:51:29;;;;;;;12.45;7.18;;;;;;;13.29;100.00;100685.69;5022439;28;20112;-71
2024/04/06 05:53:54;;;;;;;11.82;8.52;;;;;;;13.07;100.00;100630.97;5026913;28;20044;-70
2024/04/06 05:56:19;;;;;;;11.32;8.18;;;;;;;13.42;100.00;100506.50;5008570;28;20045;-68
2024/04/06 05:58:45;;;;;;;10.32;7.00;;;;;;;14.85;100.00;100707.28;5026150;28;20096;-68
2024/04/06 06:01:11;;;;;;;6.90;4.93;;;;;;;14.84;100.00;100796.06;5025878;28;20041;-69
2024/04/06 06:03:36;;;;;;;9.68;5.80;;;;;;;14.21;100.00;100888.38;5026200;28;20041;-69
2024/04/06 06:06:03;;;;;;;10.85;6.22;;;;;;;14.39;100.00;100766.78;5026408;28;20041;-69
2024/04/06 06:08:28;;;;;;;9.77;5.40;;;;;;;14.33;100.00;100775.50;5009691;28;20046;-68
2024/04/06 06:10:54;;;;;;;8.43;4.97;;;;;;;14.83;100.00;100812.31;5026288;28;20018;-69
2024/04/06 06:13:19;;;;;;;9.20;5.30;;;;;;;15.00;100.00;100948.31;5026005;28;20035;-68
2024/04/06 06:15:46;;;;;;;7.93;5.38;;;;;;;15.21;100.00;100937.41;5026021;28;20034;-69
2024/04/06 06:18:11;;;;;;;10.02;5.00;;;;;;;14.89;100.00;100893.22;5025852;28;20087;-68
2024/04/06 06:20:38;;;;;;;8.05;5.50;;;;;;;15.63;100.00;101016.44;5025730;28;20037;-69
2024/04/06 06:23:04;;;;;;;7.57;4.95;;;;;;;14.80;100.00;100978.81;5025679;28;20021;-72
2024/04/06 06:25:31;;;;;;;10.15;4.68;;;;;;;15.19;100.00;101051.09;5011785;28;20029;-71
2024/04/06 06:27:57;;;;;;;9.00;5.40;;;;;;;15.66;100.00;101039.41;5025732;28;20034;-69
2024/04/06 06:30:23;;;;;;;7.38;5.20;;;;;;;16.32;100.00;100855.78;5026418;28;20487;-71
2024/04/06 06:32:48;;;;;;;11.43;5.15;;;;;;;15.75;100.00;100952.75;5024549;28;20072;-71
2024/04/06 06:35:14;;;;;;;8.30;4.57;;;;;;;15.51;100.00;100910.84;5026038;28;20091;-70
2024/04/06 06:37:39;;;;;;;8.27;4.75;;;;;;;15.93;100.00;100976.94;5026116;28;20107;-72
2024/04/06 06:40:05;;;;;;;9.27;5.13;;;;;;;15.87;100.00;100951.50;5026044;28;20033;-71
2024/04/06 06:42:30;;;;;;;8.25;5.07;;;;;;;15.45;100.00;101069.94;5009224;28;20026;-70
2024/04/06 06:44:56;;;;;;;10.93;6.85;;;;;;;15.36;100.00;100957.44;5023569;28;20048;-70
2024/04/06 06:47:24;;;;;;;11.13;7.68;;;;;;;15.27;100.00;100941.53;5023148;28;20033;-68
2024/04/06 06:49:50;;;;;;;11.85;8.10;;;;;;;15.29;100.00;101035.38;5024387;28;20037;-69
2024/04/06 06:52:16;;;;;;;7.80;5.80;;;;;;;14.85;100.00;100938.56;5024492;28;20030;-73
2024/04/06 06:54:42;;;;;;;8.20;3.85;;;;;;;15.43;100.00;100850.47;5021646;28;20057;-68
2024/04/06 06:57:07;;;;;;;5.63;3.17;;;;;;;13.94;100.00;100795.34;5020689;28;20585;-68
2024/04/06 06:59:32;;;;;;;3.67;2.40;;;;;;;15.78;100.00;100923.63;5022067;28;20033;-68
2024/04/06 07:01:58;;;;;;;4.93;3.17;;;;;;;15.84;100.00;100900.34;5023349;28;20617;-70
2024/04/06 07:04:24;;;;;;;4.10;2.72;;;;;;;16.37;100.00;100894.97;5009406;28;20033;-69
2024/04/06 07:06:49;;;;;;;7.75;5.70;;;;;;;16.94;100.00;100906.50;5018114;28;20026;-70
2024/04/06 07:09:15;;;;;;;23.63;19.60;;;;;;;17.18;100.00;100931.22;5024951;28;20041;-71
2024/04/06 07:11:41;;;;;;;9.02;4.95;;;;;;;16.05;100.00;100891.88;5007424;28;20025;-69
2024/04/06 07:14:11;;;;;;;8.00;4.82;;;;;;;17.00;100.00;100935.38;5025688;28;20037;-71
2024/04/06 07:16:36;;;;;;;7.13;5.22;;;;;;;17.44;100.00;100938.75;5025261;28;20041;-70
2024/04/06 07:19:02;;;;;;;7.65;3.47;;;;;;;16.30;100.00;100890.94;5007838;28;20033;-70
2024/04/06 07:21:27;;;;;;;4.80;3.60;;;;;;;17.45;100.00;100919.81;5024265;28;20036;-70
2024/04/06 07:23:53;;;;;;;5.70;3.10;;;;;;;16.73;100.00;100849.09;5009737;28;20132;-69
2024/04/06 07:26:18;;;;;;;3.85;2.75;;;;;;;16.90;100.00;100938.34;5023455;28;20022;-70
2024/04/06 07:28:44;;;;;;;9.05;3.30;;;;;;;17.47;100.00;100912.06;5011391;28;20116;-70
2024/04/06 07:31:09;;;;;;;4.65;2.80;;;;;;;17.55;100.00;100841.44;5024263;28;20444;-70
2024/04/06 07:33:35;;;;;;;6.72;2.60;;;;;;;17.41;100.00;100908.00;5025002;28;20029;-69
2024/04/06 07:36:00;;;;;;;4.05;1.77;;;;;;;17.89;100.00;100939.44;5022915;28;20507;-70
2024/04/06 07:38:26;;;;;;;4.28;2.00;;;;;;;17.31;100.00;100863.03;5023145;28;20037;-69
2024/04/06 07:41:02;;;;;;;4.95;2.33;;;;;;;17.70;100.00;100924.84;5023138;28;20040;-68
2024/04/06 07:43:28;;;;;;;12.70;4.45;;;;;;;17.42;100.00;100832.56;5024224;28;20572;-67
2024/04/06 07:45:54;;;;;;;11.07;3.10;;;;;;;16.90;100.00;100823.56;5027138;28;20112;-68
2024/04/06 07:48:20;;;;;;;2.80;2.08;;;;;;;18.22;100.00;100920.88;5012865;28;20033;-69
2024/04/06 07:50:47;;;;;;;7.22;1.95;;;;;;;17.71;100.00;100890.47;5009769;28;20492;-69
2024/04/06 07:53:13;;;;;;;2.53;1.48;;;;;;;18.10;100.00;100994.31;5027482;28;20042;-68
2024/04/06 07:55:39;;;;;;;6.07;2.13;;;;;;;17.50;100.00;101056.81;5011529;28;20063;-73
2024/04/06 07:58:04;;;;;;;2.45;1.60;;;;;;;17.06;100.00;100955.69;5013410;28;20054;-70
2024/04/06 08:00:30;;;;;;;3.50;1.60;;;;;;;17.55;100.00;101000.88;5033239;28;20093;-70
2024/04/06 08:02:55;;;;;;;4.85;1.63;;;;;;;17.63;100.00;101008.31;5028499;28;20045;-70
2024/04/06 08:05:21;;;;;;;6.93;2.10;;;;;;;17.72;100.00;100977.91;5025179;28;20037;-70
2024/04/06 08:07:46;;;;;;;4.13;2.10;;;;;;;17.59;100.00;101024.78;5029590;28;20476;-71
2024/04/06 08:10:22;;;;;;;3.63;1.85;;;;;;;17.56;100.00;100870.56;5028454;28;20171;-71
2024/04/06 08:12:48;;;;;;;2.35;1.60;;;;;;;17.86;100.00;101018.50;5029887;28;20123;-70
2024/04/06 08:15:14;;;;;;;3.65;1.88;;;;;;;18.36;100.00;100978.56;5011133;28;20060;-70
2024/04/06 08:17:42;;;;;;;5.55;1.90;;;;;;;18.37;100.00;101020.59;5027704;28;20033;-70
2024/04/06 08:20:08;;;;;;;3.92;1.85;;;;;;;18.15;100.00;101000.94;5010320;28;20033;-70
2024/04/06 08:22:34;;;;;;;3.97;2.40;;;;;;;18.71;100.00;100990.75;5011563;28;20030;-70
2024/04/06 08:25:04;;;;;;;5.95;2.75;;;;;;;19.00;100.00;100971.38;5029794;28;20110;-70
2024/04/06 08:27:30;;;;;;;2.58;1.88;;;;;;;18.86;100.00;100946.22;5027598;28;20018;-73
2024/04/06 08:29:56;;;;;;;5.28;1.95;;;;;;;18.50;100.00;100960.78;5029194;28;20032;-70
2024/04/06 08:32:22;;;;;;;3.15;1.80;;;;;;;19.00;100.00;100998.00;5028453;28;20042;-69
2024/04/06 08:34:53;;;;;;;3.88;1.60;;;;;;;18.96;100.00;100962.94;5026814;28;20079;-69
2024/04/06 08:37:18;;;;;;;5.10;1.95;;;;;;;19.04;100.00;100937.66;5027834;28;20416;-70
2024/04/06 08:39:44;;;;;;;6.72;1.98;;;;;;;19.40;100.00;100960.03;5027629;28;20034;-69
2024/04/06 08:42:16;;;;;;;2.50;1.38;;;;;;;19.02;100.00;100918.84;5028378;28;20046;-67
2024/04/06 08:44:43;;;;;;;5.95;1.55;;;;;;;19.09;100.00;100970.97;5025886;28;20622;-70
2024/04/06 08:47:14;;;;;;;4.28;1.70;;;;;;;19.42;100.00;101048.50;5010510;28;20044;-73
2024/04/06 08:49:40;;;;;;;4.22;1.40;;;;;;;18.82;100.00;101022.03;5008129;28;20029;-67
2024/04/06 08:52:07;;;;;;;3.75;1.33;;;;;;;19.11;100.00;101094.63;5027368;28;20514;-67
2024/04/06 08:54:32;;;;;;;4.05;1.65;;;;;;;19.25;100.00;101023.47;5028333;28;20092;-67
2024/04/06 08:57:00;;;;;;;4.50;1.50;;;;;;;19.39;100.00;101066.72;5027793;28;20057;-68
2024/04/06 08:59:26;;;;;;;3.17;1.63;;;;;;;19.03;100.00;101040.84;5028285;28;20052;-68
2024/04/06 09:01:51;;;;;;;4.53;1.60;;;;;;;19.45;100.00;101031.13;5027801;28;20132;-68
2024/04/06 09:04:17;;;;;;;2.72;1.38;;;;;;;19.70;100.00;100990.34;5027677;28;20544;-67
2024/04/06 09:06:46;;;;;;;3.20;1.30;;;;;;;20.00;100.00;100984.56;5009788;28;20541;-67
2024/04/06 09:09:12;;;;;;;3.63;1.70;;;;;;;19.42;100.00;100968.53;5027167;28;20029;-68
2024/04/06 09:11:38;;;;;;;4.68;1.40;;;;;;;20.44;100.00;100848.78;5020442;28;20045;-69
2024/04/06 09:14:04;;;;;;;2.83;1.52;;;;;;;22.49;100.00;100903.13;5025811;28;20484;-67
2024/04/06 09:16:29;;;;;;;3.63;1.20;;;;;;;21.77;100.00;100877.31;5025752;28;20527;-67
2024/04/06 09:18:55;;;;;;;3.92;2.10;;;;;;;22.82;100.00;100971.06;5027687;28;20038;-67
2024/04/06 09:21:20;;;;;;;3.80;2.80;;;;;;;23.18;100.00;100972.16;5027362;28;20108;-68
2024/04/06 09:23:50;;;;;;;2.30;1.30;;;;;;;23.76;100.00;100921.63;5027677;28;20456;-69
2024/04/06 09:26:21;;;;;;;4.05;1.20;;;;;;;23.72;100.00;100972.94;5018608;28;20041;-67
2024/04/06 09:28:50;;;;;;;1.73;1.20;;;;;;;23.57;100.00;100909.03;5008585;28;20033;-69
2024/04/06 09:31:19;;;;;;;5.88;2.55;;;;;;;24.48;100.00;100939.97;5010243;28;20064;-68
2024/04/06 09:33:48;;;;;;;2.58;1.10;;;;;;;22.53;100.00;100956.44;5026739;28;20549;-67
2024/04/06 09:36:14;;;;;;;3.53;1.30;;;;;;;24.52;100.00;100946.63;5026673;28;20549;-67
2024/04/06 09:38:41;;;;;;;4.57;1.58;;;;;;;23.68;100.00;100818.25;5027441;28;20080;-68
2024/04/06 09:41:07;;;;;;;5.18;1.17;;;;;;;23.53;100.00;100941.31;5027044;28;20044;-67
2024/04/06 09:43:33;;;;;;;4.50;1.25;;;;;;;24.00;100.00;100979.72;5026388;28;20083;-67
2024/04/06 09:45:58;;;;;;;3.28;1.10;;;;;;;22.84;100.00;100936.31;5009384;28;20096;-68
2024/04/06 09:48:26;;;;;;;1.75;1.00;;;;;;;22.70;100.00;101026.28;5027074;28;20094;-68
2024/04/06 09:50:52;;;;;;;2.17;1.10;;;;;;;23.00;100.00;100916.25;5026920;28;20037;-68
2024/04/06 09:53:18;;;;;;;2.75;1.23;;;;;;;23.36;100.00;100891.44;5026153;28;20072;-65
2024/04/06 09:55:45;;;;;;;2.20;1.15;;;;;;;23.49;100.00;100996.19;5009540;28;20419;-67
2024/04/06 09:58:12;;;;;;;3.08;1.02;;;;;;;23.01;100.00;101028.66;5008976;28;20057;-65
2024/04/06 10:00:38;;;;;;;2.45;1.30;;;;;;;22.37;100.00;100965.16;5009574;28;20029;-69
2024/04/06 10:03:04;;;;;;;3.10;1.08;;;;;;;21.52;100.00;101017.69;5026248;28;20034;-66
2024/04/06 10:05:54;;;;;;;4.68;2.72;;;;;;;22.26;100.00;100933.88;5009240;28;20037;-66
2024/04/06 10:08:20;;;;;;;5.03;1.50;;;;;;;22.75;100.00;100861.69;5021303;28;20033;-68
2024/04/06 10:10:48;;;;;;;3.55;1.60;;;;;;;23.26;100.00;100853.09;5027309;28;20492;-67
2024/04/06 10:13:20;;;;;;;2.80;1.40;;;;;;;24.17;100.00;100942.22;5008283;28;20516;-68
2024/04/06 10:15:46;;;;;;;3.22;1.80;;;;;;;24.81;100.00;100810.13;5026364;28;20525;-68
2024/04/06 10:18:12;;;;;;;2.50;1.70;;;;;;;25.08;100.00;100861.91;5025451;28;20037;-67
2024/04/06 10:20:40;;;;;;;5.45;2.22;;;;;;;23.73;100.00;100990.19;5026642;28;20033;-70
2024/04/06 10:23:05;;;;;;;2.95;2.20;;;;;;;25.58;100.00;100853.78;5027106;28;20025;-68
2024/04/06 10:25:36;;;;;;;5.75;2.63;;;;;;;23.63;100.00;100872.25;5027317;28;20028;-67
2024/04/06 10:28:06;;;;;;;5.30;2.65;;;;;;;25.29;100.00;100873.34;5007758;28;20060;-67
2024/04/06 10:30:33;;;;;;;6.18;3.13;;;;;;;25.24;100.00;100891.06;5024542;28;20061;-74
2024/04/06 10:32:59;;;;;;;4.53;2.70;;;;;;;25.05;100.00;100771.03;5026895;28;20033;-68
2024/04/06 10:35:26;;;;;;;6.05;2.10;;;;;;;24.54;100.00;100838.09;5026159;28;20036;-69
2024/04/06 10:37:51;;;;;;;3.63;1.85;;;;;;;25.09;100.00;100784.66;5009024;28;20033;-69
2024/04/06 10:40:17;;;;;;;6.63;2.00;;;;;;;25.26;100.00;100883.16;5027385;28;20072;-68
2024/04/06 10:42:42;;;;;;;7.05;2.25;;;;;;;25.26;100.00;100868.34;5026965;28;20029;-67
2024/04/06 10:45:11;;;;;;;4.32;3.05;;;;;;;25.83;100.00;100829.25;5026470;28;20167;-68
2024/04/06 10:47:37;;;;;;;4.95;2.70;;;;;;;26.01;100.00;100827.81;5026626;28;20029;-69
2024/04/06 10:50:02;;;;;;;3.17;2.42;;;;;;;25.26;100.00;100765.97;5026581;28;20030;-66
2024/04/06 10:52:28;;;;;;;3.47;2.25;;;;;;;24.78;100.00;100804.34;5010236;28;20030;-67
2024/04/06 10:54:55;;;;;;;3.40;1.92;;;;;;;25.71;100.00;100780.72;5025904;28;20044;-69
2024/04/06 10:57:22;;;;;;;7.57;2.55;;;;;;;24.92;100.00;100892.59;5026532;28;20530;-67
2024/04/06 10:59:48;;;;;;;4.78;1.80;;;;;;;24.89;100.00;100841.63;5025526;28;20025;-67
2024/04/06 11:02:15;;;;;;;5.07;2.10;;;;;;;25.11;100.00;100858.25;5025933;28;20048;-67
2024/04/06 11:04:40;;;;;;;3.17;1.85;;;;;;;24.45;100.00;100814.53;5008327;28;20037;-67
2024/04/06 11:07:06;;;;;;;4.80;2.00;;;;;;;24.59;100.00;100889.81;5008851;28;20408;-68
2024/04/06 11:09:35;;;;;;;5.32;2.00;;;;;;;24.59;100.00;100845.59;5026665;28;20404;-66
2024/04/06 11:12:01;;;;;;;3.47;1.80;;;;;;;24.93;100.00;100878.66;5026541;28;20025;-66